Terminal Aerodrome Forecast
Issued by NWS Sioux Falls, SD

Home | Current Version | Previous Version | Text Only | Print | Product List | Glossary Off
Versions: 1 2 3 4 5 6 7 8 9 10 11 12 13 14 15 16 17

000
FTUS43 KFSD 011723
TAFHON
TAF
KHON 011723Z 0118/0218 28007KT P6SM SCT070
     FM020100 28005KT P6SM -SHRA BKN060
     FM020400 24006KT P6SM SCT060
     FM021500 22008KT P6SM SKC=

USA.gov is the U.S. government's official web portal to all federal, state and local government web resources and services.